powered by Meteolive.it
Dati meteo   Attuali  Passati Ogni 3 ore 7 Giorni 15 Giorni Avvisi Meteo Mappe meteo
Palermo / Punta Raisi, Italy
Alba: 4:45 AM UTC1
Tramonto: 7:34 PM UTC1
 Lat: 38.17N, Lon: 13.08E
ICAO Usato: LICJ
Condizioni Meteo Attuali Aggiornate: 25.06.2017 alle 10:20 LT
Quasi Sereno
Quasi Sereno
Sereno
Quasi Sereno
Temp: 23°C
Umidita': 74%
Direz/Vel. Vento: WSW 04 KTS raffiche
Pressione: 1016 hPa
Punto di rugiada: 18°C
Temperatura percepita: 23°C
Visibilitą: >10 KM (ottima)
Temperatura percepita in
presenza di vento (Wind Chill)
:
N/D
T. max (ultime 24 ore): 23°C
T. min (ultime 24 ore): 21°C


METAR ORIGINALE
LICJ 250620Z 25004KT CAVOK 23/18 Q1016